createdAt,value
2018-05-25T00:00:01.848Z,14.30
2018-05-25T00:01:01.869Z,13.50
2018-05-25T00:02:01.890Z,14.50
2018-05-25T00:03:01.913Z,13.60
2018-05-25T00:04:01.939Z,14.00
2018-05-25T00:05:01.958Z,14.90
2018-05-25T00:06:01.978Z,14.20
2018-05-25T00:07:02.003Z,13.80
2018-05-25T00:08:02.021Z,13.40
2018-05-25T00:09:02.044Z,14.40
2018-05-25T00:10:02.065Z,14.20
2018-05-25T00:11:02.087Z,14.30
2018-05-25T00:12:02.108Z,14.10
2018-05-25T00:13:02.130Z,13.90
2018-05-25T00:14:02.151Z,14.10
2018-05-25T00:15:02.174Z,14.70
2018-05-25T00:16:02.195Z,13.90
2018-05-25T00:17:02.218Z,14.70
2018-05-25T00:18:02.239Z,15.00
2018-05-25T00:19:02.265Z,15.00
2018-05-25T00:20:02.281Z,14.40
2018-05-25T00:21:02.306Z,14.90
2018-05-25T00:22:02.325Z,14.60
2018-05-25T00:23:02.346Z,15.30
2018-05-25T00:24:02.370Z,14.40
2018-05-25T00:25:02.392Z,15.90
2018-05-25T00:26:02.411Z,14.70
2018-05-25T00:27:02.433Z,14.90
2018-05-25T00:28:02.455Z,15.00
2018-05-25T00:29:02.477Z,14.90
2018-05-25T00:30:02.498Z,15.30
2018-05-25T00:31:02.519Z,15.00
2018-05-25T00:32:02.540Z,14.80
2018-05-25T00:33:02.563Z,15.20
2018-05-25T00:34:02.583Z,15.20
2018-05-25T00:35:02.606Z,15.30
2018-05-25T00:36:02.628Z,15.40
2018-05-25T00:37:02.651Z,16.30
2018-05-25T00:38:02.670Z,15.50
2018-05-25T00:39:02.693Z,14.90
2018-05-25T00:40:02.715Z,14.60
2018-05-25T00:41:02.736Z,15.10
2018-05-25T00:42:02.757Z,14.80
2018-05-25T00:43:02.778Z,15.40
2018-05-25T00:44:02.811Z,15.30
2018-05-25T00:45:02.830Z,15.40
2018-05-25T00:46:02.845Z,14.60
2018-05-25T00:47:02.865Z,14.70
2018-05-25T00:48:02.888Z,14.90
2018-05-25T00:49:02.909Z,14.40
2018-05-25T00:50:02.931Z,14.70
2018-05-25T00:51:02.953Z,14.40
2018-05-25T00:52:02.975Z,14.50
2018-05-25T00:53:03.000Z,15.10
2018-05-25T00:54:03.017Z,15.00
2018-05-25T00:55:03.039Z,14.80
2018-05-25T00:56:03.062Z,14.60
2018-05-25T00:57:03.083Z,15.00
2018-05-25T00:58:03.104Z,15.00
2018-05-25T00:59:03.126Z,14.80
2018-05-25T01:00:03.147Z,13.90
2018-05-25T01:01:03.176Z,14.20
2018-05-25T01:02:03.190Z,14.90
2018-05-25T01:03:03.211Z,14.00
2018-05-25T01:04:03.234Z,15.10
2018-05-25T01:05:03.256Z,14.40
2018-05-25T01:06:03.278Z,14.10
2018-05-25T01:07:03.300Z,13.60
2018-05-25T01:08:03.321Z,16.90
2018-05-25T01:09:03.343Z,13.80
2018-05-25T01:10:03.366Z,14.00
2018-05-25T01:11:03.387Z,15.60
2018-05-25T01:12:03.407Z,15.60
2018-05-25T01:13:03.429Z,14.20
2018-05-25T01:14:03.452Z,13.40
2018-05-25T01:15:03.475Z,14.40
2018-05-25T01:16:03.494Z,15.10
2018-05-25T01:17:03.519Z,14.20
2018-05-25T01:18:03.537Z,14.60
2018-05-25T01:19:03.559Z,14.90
2018-05-25T01:20:03.584Z,15.00
2018-05-25T01:21:03.602Z,14.60
2018-05-25T01:22:03.624Z,14.90
2018-05-25T01:23:03.646Z,14.30
2018-05-25T01:24:03.667Z,15.30
2018-05-25T01:25:03.689Z,14.80
2018-05-25T01:26:03.710Z,15.80
2018-05-25T01:27:03.731Z,15.70
2018-05-25T01:28:03.755Z,16.40
2018-05-25T01:29:03.775Z,16.10
2018-05-25T01:30:03.797Z,15.60
2018-05-25T01:31:03.817Z,16.00
2018-05-25T01:32:03.840Z,15.40
2018-05-25T01:33:03.863Z,15.90
2018-05-25T01:34:03.883Z,15.80
2018-05-25T01:35:03.905Z,15.20
2018-05-25T01:36:03.926Z,15.90
2018-05-25T01:37:03.949Z,17.40
2018-05-25T01:38:03.970Z,16.80
2018-05-25T01:39:03.992Z,15.00
2018-05-25T01:40:04.013Z,15.90
2018-05-25T01:41:04.037Z,16.30
2018-05-25T01:42:04.055Z,16.60
2018-05-25T01:43:04.078Z,17.00
2018-05-25T01:44:04.100Z,15.40
2018-05-25T01:45:04.121Z,15.40
2018-05-25T01:46:04.145Z,16.40
2018-05-25T01:47:04.164Z,17.00
2018-05-25T01:48:04.189Z,16.20
2018-05-25T01:49:04.210Z,16.00
2018-05-25T01:50:04.228Z,16.50
2018-05-25T01:51:04.250Z,16.60
2018-05-25T01:52:04.273Z,16.00
2018-05-25T01:53:04.293Z,15.80
2018-05-25T01:54:04.314Z,15.90
2018-05-25T01:55:04.337Z,16.30
2018-05-25T01:56:04.358Z,16.20
2018-05-25T01:57:04.383Z,17.10
2018-05-25T01:58:04.401Z,15.90
2018-05-25T01:59:04.423Z,16.90
2018-05-25T02:00:04.444Z,16.80
2018-05-25T02:01:04.466Z,16.10
2018-05-25T02:02:04.493Z,15.80
2018-05-25T02:03:04.510Z,16.50
2018-05-25T02:04:04.531Z,16.00
2018-05-25T02:05:04.554Z,16.10
2018-05-25T02:06:04.574Z,16.50
2018-05-25T02:07:04.598Z,16.20
2018-05-25T02:08:04.618Z,16.40
2018-05-25T02:09:04.639Z,16.30
2018-05-25T02:10:04.661Z,16.40
2018-05-25T02:11:04.705Z,15.70
2018-05-25T02:12:04.703Z,16.10
2018-05-25T02:13:04.726Z,16.80
2018-05-25T02:14:04.747Z,16.40
2018-05-25T02:15:04.769Z,17.20
2018-05-25T02:16:04.789Z,16.80
2018-05-25T02:17:04.812Z,17.70
2018-05-25T02:18:04.832Z,16.80
2018-05-25T02:19:04.854Z,16.10
2018-05-25T02:20:04.875Z,17.70
2018-05-25T02:21:04.898Z,17.10
2018-05-25T02:22:04.923Z,17.10
2018-05-25T02:23:04.941Z,16.40
2018-05-25T02:24:04.962Z,16.60
2018-05-25T02:25:04.984Z,16.90
2018-05-25T02:26:05.006Z,17.30
2018-05-25T02:27:05.027Z,17.30
2018-05-25T02:28:05.048Z,17.70
2018-05-25T02:29:05.069Z,16.60
2018-05-25T02:30:05.091Z,17.80
2018-05-25T02:31:05.112Z,17.60
2018-05-25T02:32:05.136Z,16.60
2018-05-25T02:33:05.156Z,16.60
2018-05-25T02:34:05.179Z,17.20
2018-05-25T02:35:05.198Z,17.90
2018-05-25T02:36:05.223Z,17.10
2018-05-25T02:37:05.244Z,17.00
2018-05-25T02:38:05.263Z,17.90
2018-05-25T02:39:05.285Z,17.50
2018-05-25T02:40:05.306Z,17.90
2018-05-25T02:41:05.328Z,17.10
2018-05-25T02:42:05.349Z,17.30
2018-05-25T02:43:05.371Z,17.90
2018-05-25T02:44:05.393Z,17.60
2018-05-25T02:45:05.415Z,18.40
2018-05-25T02:46:05.438Z,18.10
2018-05-25T02:47:05.457Z,18.20
2018-05-25T02:48:05.478Z,18.20
2018-05-25T02:49:05.500Z,18.50
2018-05-25T02:50:05.520Z,17.50
2018-05-25T02:51:05.542Z,18.00
2018-05-25T02:52:05.563Z,18.70
2018-05-25T02:53:05.586Z,17.90
2018-05-25T02:54:05.606Z,18.00
2018-05-25T02:55:05.639Z,18.20
2018-05-25T02:56:05.650Z,18.20
2018-05-25T02:57:05.672Z,18.80
2018-05-25T02:58:05.692Z,18.70
2018-05-25T02:59:05.713Z,18.80
2018-05-25T03:00:05.736Z,17.80
2018-05-25T03:01:05.758Z,18.10
2018-05-25T03:02:05.777Z,18.20
2018-05-25T03:03:05.799Z,18.30
2018-05-25T03:04:05.821Z,17.40
2018-05-25T03:05:05.844Z,18.40
2018-05-25T03:06:05.862Z,18.30
2018-05-25T03:07:05.883Z,19.00
2018-05-25T03:08:05.906Z,18.20
2018-05-25T03:09:05.927Z,19.00
2018-05-25T03:10:05.948Z,19.40
2018-05-25T03:11:05.969Z,18.10
2018-05-25T03:12:05.990Z,19.50
2018-05-25T03:13:06.013Z,18.30
2018-05-25T03:14:06.033Z,18.10
2018-05-25T03:15:06.055Z,19.30
2018-05-25T03:16:06.079Z,19.00
2018-05-25T03:17:06.108Z,18.40
2018-05-25T03:18:06.118Z,19.40
2018-05-25T03:19:06.143Z,19.60
2018-05-25T03:20:06.160Z,19.40
2018-05-25T03:21:06.181Z,19.10
2018-05-25T03:22:06.202Z,22.50
2018-05-25T03:23:06.223Z,19.70
2018-05-25T03:24:06.248Z,19.60
2018-05-25T03:25:06.266Z,20.00
2018-05-25T03:26:06.310Z,19.30
2018-05-25T03:27:06.309Z,19.50
2018-05-25T03:28:06.331Z,18.40
2018-05-25T03:29:06.353Z,18.90
2018-05-25T03:30:06.373Z,18.70
2018-05-25T03:31:06.396Z,19.30
2018-05-25T03:32:06.415Z,19.70
2018-05-25T03:33:06.438Z,19.60
2018-05-25T03:34:06.463Z,18.70
2018-05-25T03:35:06.479Z,19.90
2018-05-25T03:36:06.500Z,19.10
2018-05-25T03:37:06.523Z,19.80
2018-05-25T03:38:06.544Z,20.00
2018-05-25T03:39:06.567Z,19.30
2018-05-25T03:40:06.587Z,19.30
2018-05-25T03:41:06.607Z,18.40
2018-05-25T03:42:06.628Z,20.40
2018-05-25T03:43:06.651Z,19.70
2018-05-25T03:44:06.672Z,19.20
2018-05-25T03:45:06.692Z,19.30
2018-05-25T03:46:06.715Z,19.20
2018-05-25T03:47:06.736Z,19.40
2018-05-25T03:48:06.756Z,19.10
2018-05-25T03:49:06.778Z,20.00
2018-05-25T03:50:06.799Z,19.30
2018-05-25T03:51:06.820Z,18.80
2018-05-25T03:52:06.842Z,19.50
2018-05-25T03:53:06.864Z,20.40
2018-05-25T03:54:06.884Z,18.80
2018-05-25T03:55:06.905Z,19.90
2018-05-25T03:56:06.926Z,19.10
2018-05-25T03:57:06.949Z,19.60
2018-05-25T03:58:06.970Z,19.10
2018-05-25T03:59:06.990Z,18.90
2018-05-25T04:00:07.012Z,20.00
2018-05-25T04:01:07.081Z,19.10
2018-05-25T04:02:07.054Z,19.70
2018-05-25T04:03:07.076Z,19.50
2018-05-25T04:04:07.114Z,19.30
2018-05-25T04:05:07.119Z,19.10
2018-05-25T04:06:07.140Z,19.10
2018-05-25T04:07:07.162Z,18.90
2018-05-25T04:08:07.187Z,19.40
2018-05-25T04:09:07.206Z,19.30
2018-05-25T04:10:07.226Z,19.00
2018-05-25T04:11:07.247Z,18.70
2018-05-25T04:12:07.268Z,19.60
2018-05-25T04:13:07.289Z,18.40
2018-05-25T04:14:07.311Z,19.30
2018-05-25T04:15:07.332Z,18.70
2018-05-25T04:16:07.354Z,19.30
2018-05-25T04:17:07.379Z,19.50
2018-05-25T04:18:07.398Z,19.90
2018-05-25T04:19:07.419Z,18.80
2018-05-25T04:20:07.440Z,19.40
2018-05-25T04:21:07.461Z,19.60
2018-05-25T04:22:07.482Z,18.70
2018-05-25T04:23:07.505Z,20.30
2018-05-25T04:24:07.528Z,19.00
2018-05-25T04:25:07.547Z,19.50
2018-05-25T04:26:07.569Z,19.00
2018-05-25T04:27:07.590Z,18.80
2018-05-25T04:28:07.611Z,19.00
2018-05-25T04:29:07.633Z,19.60
2018-05-25T04:30:07.653Z,19.80
2018-05-25T04:31:07.675Z,19.60
2018-05-25T04:32:07.698Z,17.80
2018-05-25T04:33:07.719Z,18.60
2018-05-25T04:34:07.739Z,18.50
2018-05-25T04:35:07.761Z,19.40
2018-05-25T04:36:07.783Z,18.20
2018-05-25T04:37:07.804Z,18.50
2018-05-25T04:38:07.826Z,19.20
2018-05-25T04:39:07.847Z,19.60
2018-05-25T04:40:07.869Z,18.60
2018-05-25T04:41:07.891Z,19.00
2018-05-25T04:42:07.912Z,18.50
2018-05-25T04:43:08.000Z,18.60
2018-05-25T04:44:07.955Z,18.20
2018-05-25T04:45:07.980Z,18.50
2018-05-25T04:46:07.998Z,19.00
2018-05-25T04:47:08.020Z,19.20
2018-05-25T04:48:08.041Z,18.70
2018-05-25T04:49:08.063Z,18.10
2018-05-25T04:50:08.083Z,18.20
2018-05-25T04:51:08.106Z,18.60
2018-05-25T04:52:08.128Z,18.80
2018-05-25T04:53:08.148Z,18.10
2018-05-25T04:54:08.170Z,18.10
2018-05-25T04:55:08.191Z,17.50
2018-05-25T04:56:08.213Z,18.00
2018-05-25T04:57:08.235Z,18.00
2018-05-25T04:58:08.256Z,17.10
2018-05-25T04:59:08.278Z,17.70
2018-05-25T05:00:08.299Z,18.00
2018-05-25T05:01:08.324Z,18.10
2018-05-25T05:02:08.342Z,17.80
2018-05-25T05:03:08.363Z,18.50
2018-05-25T05:04:08.392Z,18.50
2018-05-25T05:05:08.406Z,17.40
2018-05-25T05:06:08.428Z,17.40
2018-05-25T05:07:08.452Z,18.10
2018-05-25T05:08:08.471Z,17.10
2018-05-25T05:09:08.493Z,18.20
2018-05-25T05:10:08.516Z,17.20
2018-05-25T05:11:08.537Z,17.00
2018-05-25T05:12:08.558Z,17.30
2018-05-25T05:13:08.580Z,17.30
2018-05-25T05:14:08.600Z,17.50
2018-05-25T05:15:08.623Z,17.80
2018-05-25T05:16:08.646Z,17.90
2018-05-25T05:17:08.666Z,17.10
2018-05-25T05:18:08.688Z,17.30
2018-05-25T05:19:08.710Z,17.70
2018-05-25T05:20:08.731Z,17.60
2018-05-25T05:21:08.754Z,18.50
2018-05-25T05:22:08.774Z,17.40
2018-05-25T05:23:08.875Z,17.50
2018-05-25T05:24:08.818Z,18.00
2018-05-25T05:25:08.839Z,18.30
2018-05-25T05:26:08.861Z,18.10
2018-05-25T05:27:08.882Z,18.40
2018-05-25T05:28:08.904Z,19.10
2018-05-25T05:29:08.927Z,19.00
2018-05-25T05:34:09.033Z,20.30
2018-05-25T05:35:09.054Z,17.90
2018-05-25T05:36:09.079Z,17.00
2018-05-25T05:37:09.098Z,16.70
2018-05-25T05:38:09.120Z,17.70
2018-05-25T05:39:09.141Z,18.40
2018-05-25T05:40:09.165Z,20.90
2018-05-25T05:41:09.185Z,17.00
2018-05-25T05:42:09.206Z,16.50
2018-05-25T05:43:09.228Z,16.80
2018-05-25T05:44:09.250Z,19.00
2018-05-25T05:45:09.272Z,17.00
2018-05-25T05:46:09.295Z,16.40
2018-05-25T05:47:09.315Z,16.30
2018-05-25T05:48:09.337Z,16.50
2018-05-25T05:49:09.359Z,16.80
2018-05-25T05:50:09.380Z,17.60
2018-05-25T05:51:09.403Z,18.10
2018-05-25T05:52:09.424Z,17.00
2018-05-25T05:53:09.447Z,16.90
2018-05-25T05:54:09.468Z,17.10
2018-05-25T05:55:09.490Z,16.40
2018-05-25T05:56:09.513Z,17.20
2018-05-25T05:57:09.533Z,15.60
2018-05-25T05:58:09.554Z,16.30
2018-05-25T05:59:09.578Z,16.60
2018-05-25T06:00:09.600Z,16.30
2018-05-25T06:01:09.621Z,15.50
2018-05-25T06:02:09.643Z,16.50
2018-05-25T06:03:09.666Z,15.90
2018-05-25T06:04:09.686Z,15.60
2018-05-25T06:05:09.713Z,16.80
2018-05-25T06:06:09.731Z,15.70
2018-05-25T06:07:09.752Z,16.20
2018-05-25T06:08:09.787Z,15.50
2018-05-25T06:09:09.798Z,15.80
2018-05-25T06:10:09.819Z,16.70
2018-05-25T06:11:09.839Z,15.80
2018-05-25T06:12:09.864Z,16.60
2018-05-25T06:13:09.884Z,15.80
2018-05-25T06:14:09.905Z,16.00
2018-05-25T06:15:09.931Z,15.50
2018-05-25T06:16:09.950Z,16.10
2018-05-25T06:17:09.973Z,15.10
2018-05-25T06:18:09.995Z,16.70
2018-05-25T06:19:10.016Z,15.60
2018-05-25T06:20:10.040Z,16.00
2018-05-25T06:21:10.061Z,16.80
2018-05-25T06:22:10.082Z,14.90
2018-05-25T06:23:10.105Z,15.50
2018-05-25T06:24:10.129Z,14.80
2018-05-25T06:25:10.156Z,15.20
2018-05-25T06:26:10.176Z,15.00
2018-05-25T06:27:10.202Z,14.50
2018-05-25T06:28:10.223Z,14.80
2018-05-25T06:29:10.239Z,13.60
2018-05-25T06:30:10.261Z,14.30
2018-05-25T06:31:10.284Z,14.80
2018-05-25T06:32:10.307Z,14.60
2018-05-25T06:33:10.328Z,14.30
2018-05-25T06:34:10.350Z,14.10
2018-05-25T06:35:10.373Z,15.90
2018-05-25T06:36:10.396Z,14.50
2018-05-25T06:37:10.418Z,15.50
2018-05-25T06:38:10.441Z,14.20
2018-05-25T06:39:10.465Z,14.70
2018-05-25T06:40:10.491Z,14.00
2018-05-25T06:41:10.513Z,15.50
2018-05-25T06:42:10.530Z,14.10
2018-05-25T06:43:10.552Z,13.90
2018-05-25T06:44:10.576Z,14.50
2018-05-25T06:45:10.599Z,15.20
2018-05-25T06:46:10.622Z,13.50
2018-05-25T06:47:10.644Z,14.20
2018-05-25T06:48:10.667Z,13.80
2018-05-25T06:49:10.689Z,13.80
2018-05-25T06:50:10.711Z,15.10
2018-05-25T06:51:10.735Z,15.40
2018-05-25T06:52:10.759Z,13.90
2018-05-25T06:53:10.782Z,13.00
2018-05-25T06:54:10.804Z,13.50
2018-05-25T06:55:10.826Z,13.20
2018-05-25T06:56:10.849Z,12.50
2018-05-25T06:57:10.900Z,13.10
2018-05-25T06:58:10.896Z,12.70
2018-05-25T06:59:10.920Z,11.90
2018-05-25T07:00:10.944Z,12.80
2018-05-25T07:01:10.967Z,13.20
2018-05-25T07:02:10.989Z,12.50
2018-05-25T07:03:11.013Z,12.70
2018-05-25T07:04:11.036Z,12.00
2018-05-25T07:05:11.061Z,12.00
2018-05-25T07:06:11.085Z,11.80
2018-05-25T07:07:11.109Z,12.20
2018-05-25T07:08:11.134Z,11.80
2018-05-25T07:09:11.159Z,11.70
2018-05-25T07:10:11.181Z,11.30
2018-05-25T07:11:11.207Z,11.10
2018-05-25T07:12:11.231Z,10.30
2018-05-25T07:13:11.257Z,11.60
2018-05-25T07:14:11.284Z,10.90
2018-05-25T07:15:11.304Z,11.00
2018-05-25T07:16:11.331Z,10.30
2018-05-25T07:17:11.361Z,10.30
2018-05-25T07:18:11.380Z,10.10
2018-05-25T07:19:11.407Z,10.40
2018-05-25T07:20:11.433Z,10.90
2018-05-25T07:21:11.457Z,10.50
2018-05-25T07:22:11.484Z,10.90
2018-05-25T07:23:11.510Z,9.50
2018-05-25T07:24:11.536Z,10.00
2018-05-25T07:25:11.565Z,10.20
2018-05-25T07:26:11.589Z,9.80
2018-05-25T07:27:11.613Z,9.80
2018-05-25T07:28:11.640Z,10.20
2018-05-25T07:29:11.668Z,10.80
2018-05-25T07:30:11.694Z,9.90
2018-05-25T07:31:11.719Z,10.00
2018-05-25T07:32:11.749Z,9.60
2018-05-25T07:33:11.775Z,9.70
2018-05-25T07:34:11.802Z,9.60
2018-05-25T07:35:11.828Z,9.10
2018-05-25T07:36:11.857Z,9.40
2018-05-25T07:37:11.890Z,9.00
2018-05-25T07:38:11.911Z,9.00
2018-05-25T07:39:11.939Z,8.80
2018-05-25T07:40:11.966Z,9.40
2018-05-25T07:41:11.996Z,9.60
2018-05-25T07:42:12.020Z,10.30
2018-05-25T07:43:12.049Z,9.30
2018-05-25T07:44:12.078Z,9.40
2018-05-25T07:45:12.106Z,8.80
2018-05-25T07:46:12.133Z,9.10
2018-05-25T07:47:12.167Z,9.80
2018-05-25T07:48:12.189Z,9.90
2018-05-25T07:49:12.217Z,9.60
2018-05-25T07:50:12.244Z,9.90
2018-05-25T07:51:12.274Z,9.70
2018-05-25T07:52:12.301Z,9.70
2018-05-25T07:53:12.329Z,10.00
2018-05-25T07:54:12.357Z,10.40
2018-05-25T07:55:12.383Z,10.30
2018-05-25T07:56:12.413Z,10.70
2018-05-25T07:57:12.440Z,9.90
2018-05-25T07:58:12.467Z,10.00
2018-05-25T07:59:12.495Z,10.10
2018-05-25T08:00:12.525Z,10.50
2018-05-25T08:01:12.558Z,10.70
2018-05-25T08:02:12.578Z,10.70
2018-05-25T08:03:12.610Z,10.30
2018-05-25T08:04:12.634Z,9.30
2018-05-25T08:05:12.664Z,10.30
2018-05-25T08:06:12.691Z,10.00
2018-05-25T08:07:12.718Z,8.80
2018-05-25T08:08:12.747Z,9.90
2018-05-25T08:09:12.775Z,10.00
2018-05-25T08:10:12.804Z,9.40
2018-05-25T08:11:12.831Z,9.20
2018-05-25T08:12:12.860Z,9.50
2018-05-25T08:13:12.890Z,9.80
2018-05-25T08:14:12.916Z,9.40
2018-05-25T08:15:12.947Z,9.40
2018-05-25T08:16:12.975Z,9.60
2018-05-25T08:17:13.007Z,9.10
2018-05-25T08:18:13.033Z,9.80
2018-05-25T08:19:13.061Z,9.30
2018-05-25T08:20:13.096Z,9.10
2018-05-25T08:21:13.119Z,11.00
2018-05-25T08:22:13.148Z,9.60
2018-05-25T08:23:13.178Z,9.50
2018-05-25T08:24:13.208Z,9.50
2018-05-25T08:25:13.242Z,10.60
2018-05-25T08:26:13.266Z,10.00
2018-05-25T08:27:13.297Z,10.10
2018-05-25T08:28:13.326Z,9.60
2018-05-25T08:29:13.357Z,8.70
2018-05-25T08:30:13.411Z,9.50
2018-05-25T08:31:13.416Z,9.90
2018-05-25T08:32:13.445Z,9.80
2018-05-25T08:33:13.476Z,9.60
2018-05-25T08:34:13.505Z,9.70
2018-05-25T08:35:13.535Z,9.80
2018-05-25T08:36:13.566Z,10.20
2018-05-25T08:37:13.596Z,9.80
2018-05-25T08:38:13.627Z,10.00
2018-05-25T08:39:13.658Z,10.20
2018-05-25T08:40:13.687Z,11.20
2018-05-25T08:41:13.718Z,10.40
2018-05-25T08:42:13.748Z,9.70
2018-05-25T08:43:13.829Z,14.30
2018-05-25T08:44:13.810Z,10.70
2018-05-25T08:45:13.842Z,9.30
2018-05-25T08:46:13.870Z,9.30
2018-05-25T08:47:13.901Z,16.40
2018-05-25T08:48:13.933Z,9.90
2018-05-25T08:49:13.965Z,14.20
2018-05-25T08:50:13.995Z,19.30
2018-05-25T08:51:14.026Z,8.40
2018-05-25T08:52:14.055Z,8.90
2018-05-25T08:53:14.087Z,8.60
2018-05-25T08:54:14.117Z,8.90
2018-05-25T08:55:14.188Z,9.40
2018-05-25T08:56:14.180Z,8.90
2018-05-25T08:57:14.217Z,8.40
2018-05-25T08:58:14.243Z,8.30
2018-05-25T08:59:14.273Z,8.90
2018-05-25T09:00:14.304Z,8.40
2018-05-25T09:01:14.349Z,8.50
2018-05-25T09:02:14.364Z,10.20
2018-05-25T09:03:14.396Z,8.30
2018-05-25T09:04:14.428Z,8.00
2018-05-25T09:05:14.466Z,8.90
2018-05-25T09:06:14.491Z,9.10
2018-05-25T09:07:14.521Z,9.00
2018-05-25T09:08:14.553Z,8.80
2018-05-25T09:09:14.588Z,8.20
2018-05-25T09:10:14.617Z,8.80
2018-05-25T09:11:14.648Z,8.40
2018-05-25T09:12:14.678Z,8.80
2018-05-25T09:13:14.710Z,9.10
2018-05-25T09:14:14.742Z,8.80
2018-05-25T09:15:14.775Z,9.10
2018-05-25T09:16:14.806Z,8.80
2018-05-25T09:17:14.837Z,8.40
2018-05-25T09:18:14.872Z,8.70
2018-05-25T09:19:14.900Z,8.20
2018-05-25T09:20:14.932Z,8.50
2018-05-25T09:21:14.963Z,8.30
2018-05-25T09:22:14.995Z,8.40
2018-05-25T09:23:15.028Z,8.40
2018-05-25T09:24:15.057Z,9.20
2018-05-25T09:25:15.090Z,9.30
2018-05-25T09:26:15.124Z,9.00
2018-05-25T09:27:15.153Z,8.90
2018-05-25T09:28:15.185Z,8.90
2018-05-25T09:29:15.215Z,8.60
2018-05-25T09:30:15.248Z,8.50
2018-05-25T09:31:15.278Z,9.00
2018-05-25T09:32:15.311Z,7.90
2018-05-25T09:33:15.342Z,7.30
2018-05-25T09:34:15.374Z,7.70
2018-05-25T09:35:15.407Z,7.70
2018-05-25T09:36:15.458Z,7.30
2018-05-25T09:37:15.470Z,7.10
2018-05-25T09:38:15.501Z,7.70
2018-05-25T09:39:15.534Z,6.80
2018-05-25T09:40:15.566Z,7.40
2018-05-25T09:41:15.601Z,7.40
2018-05-25T09:42:15.633Z,6.30
2018-05-25T09:43:15.662Z,6.30
2018-05-25T09:44:15.694Z,5.70
2018-05-25T09:45:15.728Z,7.40
2018-05-25T09:46:15.759Z,5.90
2018-05-25T09:47:15.790Z,6.80
2018-05-25T09:48:15.823Z,6.20
2018-05-25T09:49:15.857Z,8.90
2018-05-25T09:50:15.887Z,7.20
2018-05-25T09:51:15.923Z,7.30
2018-05-25T09:52:15.953Z,8.20
2018-05-25T09:53:15.987Z,8.60
2018-05-25T09:54:16.016Z,7.60
2018-05-25T09:55:16.049Z,8.60
2018-05-25T09:56:16.085Z,8.10
2018-05-25T09:57:16.114Z,7.20
2018-05-25T09:58:16.145Z,7.70
2018-05-25T09:59:16.178Z,7.40
2018-05-25T10:00:16.211Z,7.80
2018-05-25T10:01:16.243Z,7.40
2018-05-25T10:02:16.274Z,8.00
2018-05-25T10:03:16.337Z,8.00
2018-05-25T10:04:16.339Z,7.20
2018-05-25T10:05:16.372Z,6.90
2018-05-25T10:06:16.404Z,6.80
2018-05-25T10:07:16.437Z,6.70
2018-05-25T10:08:16.470Z,6.80
2018-05-25T10:09:16.505Z,7.50
2018-05-25T10:10:16.536Z,6.90
2018-05-25T10:11:16.567Z,6.40
2018-05-25T10:12:16.599Z,6.90
2018-05-25T10:13:16.633Z,7.10
2018-05-25T10:14:16.663Z,7.40
2018-05-25T10:15:16.695Z,7.30
2018-05-25T10:16:16.729Z,6.80
2018-05-25T10:17:16.761Z,7.70
2018-05-25T10:18:16.793Z,7.50
2018-05-25T10:19:16.826Z,7.80
2018-05-25T10:20:16.858Z,8.20
2018-05-25T10:21:16.890Z,7.60
2018-05-25T10:22:16.922Z,8.30
2018-05-25T10:23:16.955Z,8.30
2018-05-25T10:24:16.988Z,7.00
2018-05-25T10:25:17.020Z,7.30
2018-05-25T10:26:17.051Z,8.90
2018-05-25T10:27:17.084Z,7.80
2018-05-25T10:28:17.115Z,7.60
2018-05-25T10:29:17.146Z,8.60
2018-05-25T10:30:17.177Z,8.50
2018-05-25T10:31:17.209Z,7.80
2018-05-25T10:32:17.243Z,7.80
2018-05-25T10:33:17.271Z,8.00
2018-05-25T10:34:17.302Z,7.10
2018-05-25T10:35:17.344Z,6.90
2018-05-25T10:36:17.370Z,6.50
2018-05-25T10:37:17.394Z,6.80
2018-05-25T10:38:17.426Z,5.80
2018-05-25T10:39:17.457Z,6.00
2018-05-25T10:40:17.488Z,6.00
2018-05-25T10:41:17.575Z,6.10
2018-05-25T10:42:17.550Z,5.30
2018-05-25T10:43:17.578Z,5.90
2018-05-25T10:44:17.609Z,5.80
2018-05-25T10:45:17.639Z,6.90
2018-05-25T10:46:17.671Z,6.70
2018-05-25T10:47:17.700Z,5.70
2018-05-25T10:48:17.732Z,5.20
2018-05-25T10:49:17.763Z,6.30
2018-05-25T10:50:17.795Z,5.90
2018-05-25T10:51:17.826Z,6.80
2018-05-25T10:52:17.856Z,6.80
2018-05-25T10:53:17.888Z,6.70
2018-05-25T10:54:17.919Z,6.80
2018-05-25T10:55:17.952Z,6.70
2018-05-25T10:56:17.984Z,6.70
2018-05-25T10:57:18.015Z,7.50
2018-05-25T10:58:18.047Z,8.60
2018-05-25T10:59:18.078Z,8.30
2018-05-25T11:00:18.111Z,8.10
2018-05-25T11:01:18.142Z,8.40
2018-05-25T11:02:18.174Z,7.90
2018-05-25T11:03:18.205Z,8.10
2018-05-25T11:04:18.238Z,7.10
2018-05-25T11:05:18.270Z,7.00
2018-05-25T11:06:18.301Z,8.00
2018-05-25T11:07:18.332Z,6.50
2018-05-25T11:08:18.365Z,6.90
2018-05-25T11:09:18.397Z,7.40
2018-05-25T11:10:18.427Z,7.40
2018-05-25T11:11:18.458Z,7.40
2018-05-25T11:12:18.491Z,8.20
2018-05-25T11:13:18.523Z,7.90
2018-05-25T11:14:18.558Z,7.90
2018-05-25T11:15:18.586Z,7.00
2018-05-25T11:16:18.617Z,6.50
2018-05-25T11:17:18.650Z,6.60
2018-05-25T11:18:18.681Z,6.40
2018-05-25T11:19:18.712Z,6.90
2018-05-25T11:20:18.748Z,6.00
2018-05-25T11:21:18.777Z,5.50
2018-05-25T11:22:18.809Z,5.40
2018-05-25T11:23:18.839Z,5.00
2018-05-25T11:24:18.872Z,5.10
2018-05-25T11:25:18.905Z,6.20
2018-05-25T11:26:18.936Z,4.50
2018-05-25T11:27:18.969Z,4.40
2018-05-25T11:28:19.002Z,5.00
2018-05-25T11:29:19.033Z,4.60
2018-05-25T11:30:19.065Z,5.00
2018-05-25T11:31:19.097Z,6.20
2018-05-25T11:32:19.129Z,5.80
2018-05-25T11:33:19.160Z,5.70
2018-05-25T11:34:19.193Z,6.10
2018-05-25T11:35:19.225Z,5.50
2018-05-25T11:36:19.256Z,5.10
2018-05-25T11:37:19.322Z,4.80
2018-05-25T11:38:19.320Z,6.80
2018-05-25T11:39:19.349Z,5.80
2018-05-25T11:40:19.381Z,5.60
2018-05-25T11:41:19.412Z,6.70
2018-05-25T11:42:19.442Z,5.90
2018-05-25T11:43:19.473Z,5.70
2018-05-25T11:44:19.503Z,6.10
2018-05-25T11:45:19.533Z,5.00
2018-05-25T11:46:19.565Z,4.90
2018-05-25T11:47:19.593Z,6.40
2018-05-25T11:48:19.626Z,5.90
2018-05-25T11:49:19.655Z,5.10
2018-05-25T11:50:19.683Z,6.70
2018-05-25T11:51:19.714Z,5.30
2018-05-25T11:52:19.745Z,8.60
2018-05-25T11:53:19.773Z,6.30
2018-05-25T11:54:19.804Z,5.80
2018-05-25T11:55:19.833Z,5.70
2018-05-25T11:56:19.862Z,5.10
2018-05-25T11:57:19.902Z,5.20
2018-05-25T11:58:19.921Z,5.80
2018-05-25T11:59:19.950Z,5.70
2018-05-25T12:00:19.981Z,6.90
2018-05-25T12:01:20.010Z,5.80
2018-05-25T12:02:20.038Z,6.80
2018-05-25T12:03:20.066Z,8.50
2018-05-25T12:04:20.095Z,6.90
2018-05-25T12:05:20.124Z,6.00
2018-05-25T12:06:20.151Z,5.90
2018-05-25T12:07:20.180Z,5.60
2018-05-25T12:08:20.208Z,6.70
2018-05-25T12:09:20.238Z,6.60
2018-05-25T12:10:20.266Z,8.60
2018-05-25T12:11:20.294Z,6.90
2018-05-25T12:12:20.325Z,7.00
2018-05-25T12:13:20.351Z,8.00
2018-05-25T12:14:20.379Z,7.10
2018-05-25T12:15:20.407Z,7.80
2018-05-25T12:16:20.438Z,5.90
2018-05-25T12:17:20.462Z,5.60
2018-05-25T12:18:20.489Z,5.60
2018-05-25T12:19:20.519Z,5.90
2018-05-25T12:20:20.546Z,5.30
2018-05-25T12:21:20.575Z,6.40
2018-05-25T12:22:20.602Z,5.80
2018-05-25T12:23:20.630Z,5.40
2018-05-25T12:24:20.658Z,6.30
2018-05-25T12:25:20.688Z,5.10
2018-05-25T12:26:20.714Z,5.30
2018-05-25T12:27:20.747Z,5.40
2018-05-25T12:28:20.772Z,5.90
2018-05-25T12:29:20.802Z,5.60
2018-05-25T12:30:20.829Z,6.10
2018-05-25T12:31:20.858Z,5.20
2018-05-25T12:32:20.887Z,4.80
2018-05-25T12:33:20.916Z,5.90
2018-05-25T12:34:20.944Z,6.00
2018-05-25T12:35:20.972Z,9.10
2018-05-25T12:36:21.003Z,5.30
2018-05-25T12:37:21.031Z,5.50
2018-05-25T12:38:21.064Z,6.10
2018-05-25T12:39:21.093Z,5.50
2018-05-25T12:40:21.118Z,5.20
2018-05-25T12:41:21.149Z,5.70
2018-05-25T12:42:21.177Z,6.70
2018-05-25T12:43:21.206Z,5.20
2018-05-25T12:44:21.235Z,4.70
2018-05-25T12:45:21.264Z,4.90
2018-05-25T12:46:21.294Z,5.50
2018-05-25T12:47:21.323Z,4.90
2018-05-25T12:48:21.351Z,5.00
2018-05-25T12:49:21.382Z,5.00
2018-05-25T12:50:21.409Z,6.50
2018-05-25T12:51:21.438Z,5.70
2018-05-25T12:52:21.468Z,5.50
2018-05-25T12:53:21.497Z,5.40
2018-05-25T12:54:21.525Z,5.80
2018-05-25T12:55:21.554Z,7.20
2018-05-25T12:56:21.583Z,5.60
2018-05-25T12:57:21.615Z,5.40
2018-05-25T12:58:21.641Z,5.30
2018-05-25T12:59:21.670Z,5.20
2018-05-25T13:00:21.698Z,4.70
2018-05-25T13:01:21.727Z,7.20
2018-05-25T13:02:21.755Z,4.80
2018-05-25T13:03:21.785Z,4.80
2018-05-25T13:04:21.813Z,3.90
2018-05-25T13:05:21.841Z,4.60
2018-05-25T13:06:21.868Z,7.40